Time;durP1;ratioP1;P1;durP2;ratioP2;P2;SDS_P1;SDS_P2;PMS_P1;PMS_P2;Temp;Humidity;BMP_temperature;BMP_pressure;BME280_temperature;BME280_humidity;BME280_pressure;Samples;Min_cycle;Max_cycle;Signal;HPM_P1;HPM_P2
2023/08/18 08:48:02;;;;;;;22.25;19.38;;;;;;;17.61;100.00;101487.06;5069743;28;20695;-69
2023/08/18 08:50:31;;;;;;;20.95;18.70;;;;;;;17.56;100.00;101479.63;5069963;28;20482;-69
2023/08/18 08:53:00;;;;;;;20.13;17.83;;;;;;;17.62;100.00;101477.75;5069890;28;20035;-69
2023/08/18 08:55:31;;;;;;;19.70;17.60;;;;;;;17.65;100.00;101482.75;5068568;28;20025;-70
2023/08/18 08:57:56;;;;;;;23.02;18.35;;;;;;;17.69;100.00;101479.22;5069763;28;20033;-69
2023/08/18 09:00:22;;;;;;;21.10;18.80;;;;;;;17.71;100.00;101481.72;5069356;28;20413;-69
2023/08/18 09:02:47;;;;;;;21.67;18.13;;;;;;;17.74;100.00;101485.81;5067469;28;20028;-70
2023/08/18 09:05:14;;;;;;;21.95;18.08;;;;;;;17.79;100.00;101494.09;5068345;28;20379;-70
2023/08/18 09:07:39;;;;;;;19.75;17.23;;;;;;;17.76;100.00;101489.97;5069308;28;20504;-70
2023/08/18 09:10:06;;;;;;;19.20;16.98;;;;;;;17.80;100.00;101490.25;5069622;28;20027;-70
2023/08/18 09:12:32;;;;;;;19.77;17.70;;;;;;;17.88;100.00;101490.63;5069538;28;20024;-70
2023/08/18 09:14:58;;;;;;;19.00;16.92;;;;;;;17.94;100.00;101479.78;5068301;28;20025;-71
2023/08/18 09:17:26;;;;;;;18.77;16.88;;;;;;;17.96;100.00;101488.56;5069460;28;20032;-71
2023/08/18 09:19:55;;;;;;;18.88;16.50;;;;;;;18.00;100.00;101489.69;5069427;28;20502;-71
2023/08/18 09:22:22;;;;;;;19.73;17.63;;;;;;;18.04;100.00;101488.06;5069502;28;20033;-70
2023/08/18 09:24:51;;;;;;;20.63;17.95;;;;;;;18.09;100.00;101482.66;5068965;28;20115;-70
2023/08/18 09:27:18;;;;;;;20.55;17.77;;;;;;;18.06;100.00;101475.78;5069143;28;20451;-70
2023/08/18 09:29:43;;;;;;;19.67;17.55;;;;;;;18.12;100.00;101467.63;5067291;28;20112;-70
2023/08/18 09:32:10;;;;;;;18.80;16.58;;;;;;;18.20;100.00;101467.94;5069115;28;20119;-71
2023/08/18 09:34:42;;;;;;;22.35;16.90;;;;;;;18.28;100.00;101465.81;5068862;28;20075;-70
2023/08/18 09:37:07;;;;;;;;;;;;;;;18.44;100.00;101464.84;5069396;28;20138;-70
2023/08/18 09:39:33;;;;;;;20.20;17.20;;;;;;;18.36;100.00;101470.84;5068929;28;19995;-71
2023/08/18 09:41:59;;;;;;;21.00;17.95;;;;;;;18.43;100.00;101471.41;5068340;28;20021;-70
2023/08/18 09:44:24;;;;;;;22.27;18.55;;;;;;;18.48;100.00;101473.34;5068484;28;20024;-70
2023/08/18 09:46:54;;;;;;;20.60;18.40;;;;;;;18.52;100.00;101464.34;5068000;28;20476;-70
2023/08/18 09:49:20;;;;;;;23.15;18.70;;;;;;;18.51;100.00;101470.94;5068459;28;20070;-70
2023/08/18 09:52:01;;;;;;;20.55;18.35;;;;;;;18.54;100.00;101466.81;5067129;28;20456;-70
2023/08/18 09:54:28;;;;;;;23.05;18.42;;;;;;;18.56;100.00;101465.47;5067342;28;20028;-71
2023/08/18 09:56:59;;;;;;;18.30;16.33;;;;;;;18.68;100.00;101467.22;5068368;28;20108;-71
2023/08/18 09:59:31;;;;;;;;;;;;;;;18.83;100.00;101469.22;5054061;28;20029;-70
2023/08/18 10:01:57;;;;;;;22.75;20.35;;;;;;;18.80;100.00;101461.53;5052583;28;19995;-71
2023/08/18 10:04:24;;;;;;;23.88;21.15;;;;;;;18.77;100.00;101462.88;5055273;28;20108;-71
2023/08/18 10:06:52;;;;;;;22.80;19.95;;;;;;;18.85;100.00;101472.50;5054924;28;20070;-70
2023/08/18 10:09:20;;;;;;;23.95;21.45;;;;;;;18.90;100.00;101464.34;5055216;28;20032;-71
2023/08/18 10:11:46;;;;;;;23.30;20.75;;;;;;;18.95;100.00;101462.44;5053638;28;20045;-69
2023/08/18 10:14:11;;;;;;;21.73;19.48;;;;;;;19.01;100.00;101456.97;5054884;28;20478;-71
2023/08/18 10:16:37;;;;;;;22.95;20.55;;;;;;;19.08;100.00;101452.06;5055094;28;20159;-71
2023/08/18 10:19:03;;;;;;;24.80;22.17;;;;;;;19.12;100.00;101454.03;5055023;28;20020;-71
2023/08/18 10:21:29;;;;;;;29.60;26.58;;;;;;;19.08;100.00;101447.44;5054938;28;20070;-71
2023/08/18 10:23:54;;;;;;;27.88;24.88;;;;;;;19.18;100.00;101456.81;5053039;28;20033;-71
2023/08/18 10:26:22;;;;;;;25.70;22.90;;;;;;;19.18;100.00;101443.91;5054809;28;20020;-71
2023/08/18 10:28:48;;;;;;;26.30;23.30;;;;;;;19.26;100.00;101440.66;5054614;28;20024;-71
2023/08/18 10:31:14;;;;;;;23.10;20.73;;;;;;;19.37;100.00;101429.69;5054830;28;20433;-71
2023/08/18 10:33:49;;;;;;;25.77;21.10;;;;;;;19.42;100.00;101435.19;5054534;28;20484;-71
2023/08/18 10:36:21;;;;;;;23.63;21.23;;;;;;;19.50;100.00;101436.59;5054442;28;20020;-71
2023/08/18 10:38:46;;;;;;;26.45;23.75;;;;;;;19.53;100.00;101436.88;5054118;28;20464;-71
2023/08/18 10:41:12;;;;;;;25.35;22.75;;;;;;;19.52;100.00;101435.22;5054323;28;20069;-71
2023/08/18 10:43:45;;;;;;;24.27;20.90;;;;;;;19.56;100.00;101433.56;5054279;28;20013;-71
2023/08/18 10:46:13;;;;;;;23.00;20.33;;;;;;;19.64;100.00;101426.72;5052956;28;20048;-70
2023/08/18 10:48:39;;;;;;;22.80;20.50;;;;;;;19.62;100.00;101432.50;5054063;28;20475;-70
2023/08/18 10:51:05;;;;;;;23.10;20.80;;;;;;;19.68;100.00;101424.28;5052872;28;20025;-70
2023/08/18 10:53:36;;;;;;;24.80;22.20;;;;;;;19.78;100.00;101424.31;5053200;28;20025;-71
2023/08/18 10:56:04;;;;;;;24.00;21.02;;;;;;;19.85;100.00;101424.03;5053847;28;20283;-71
2023/08/18 10:58:30;;;;;;;24.10;21.55;;;;;;;19.86;100.00;101414.72;5054100;28;20017;-71
2023/08/18 11:00:55;;;;;;;21.90;19.58;;;;;;;20.00;100.00;101422.13;5051468;28;20074;-71
2023/08/18 11:03:21;;;;;;;22.48;20.17;;;;;;;20.03;100.00;101419.94;5052960;28;20092;-70
2023/08/18 11:05:46;;;;;;;23.05;20.75;;;;;;;20.09;100.00;101408.66;5054127;28;20024;-70
2023/08/18 11:08:12;;;;;;;22.95;20.65;;;;;;;20.08;100.00;101412.53;5054122;28;20025;-71
2023/08/18 11:10:39;;;;;;;21.75;19.48;;;;;;;20.21;100.00;101405.63;5053092;28;20341;-70
2023/08/18 11:13:06;;;;;;;22.20;18.63;;;;;;;20.25;100.00;101401.22;5052688;28;20029;-70
2023/08/18 11:15:31;;;;;;;21.25;18.52;;;;;;;20.35;100.00;101392.97;5053960;28;20029;-71
2023/08/18 11:17:57;;;;;;;21.35;19.15;;;;;;;20.38;100.00;101393.50;5053739;28;20032;-70
2023/08/18 11:20:22;;;;;;;20.42;18.30;;;;;;;20.53;100.00;101387.97;5053943;28;20029;-71
2023/08/18 11:22:51;;;;;;;22.13;19.88;;;;;;;20.57;100.00;101397.31;5053753;28;20349;-70
2023/08/18 11:25:17;;;;;;;21.50;19.23;;;;;;;20.70;100.00;101388.50;5054041;28;20091;-71
2023/08/18 11:27:44;;;;;;;19.40;17.40;;;;;;;20.80;100.00;101384.88;5053456;28;20029;-71
2023/08/18 11:30:12;;;;;;;20.63;18.63;;;;;;;20.89;100.00;101382.38;5053681;28;20033;-71
2023/08/18 11:32:38;;;;;;;20.60;18.33;;;;;;;20.96;100.00;101379.34;5053618;28;20025;-71
2023/08/18 11:35:07;;;;;;;22.92;20.52;;;;;;;21.03;100.00;101377.09;5053366;28;20100;-71
2023/08/18 11:37:37;;;;;;;21.98;19.83;;;;;;;21.22;100.00;101371.75;5053508;28;20506;-71
2023/08/18 11:40:03;;;;;;;24.23;18.27;;;;;;;21.19;100.00;101370.41;5053262;28;20091;-71
2023/08/18 11:42:30;;;;;;;19.83;17.83;;;;;;;21.21;100.00;101372.84;5053439;28;20016;-71
2023/08/18 11:44:55;;;;;;;19.48;17.48;;;;;;;21.18;100.00;101365.19;5053159;28;20399;-70
2023/08/18 11:47:21;;;;;;;21.08;17.73;;;;;;;21.33;100.00;101365.09;5053276;28;20045;-71
2023/08/18 11:49:47;;;;;;;20.90;18.83;;;;;;;21.55;100.00;101355.63;5053091;28;20083;-71
2023/08/18 11:52:13;;;;;;;20.17;17.67;;;;;;;21.76;100.00;101357.09;5053313;28;20367;-71
2023/08/18 11:54:41;;;;;;;22.05;19.75;;;;;;;21.86;100.00;101361.72;5051936;28;20527;-71
2023/08/18 11:57:12;;;;;;;20.33;18.23;;;;;;;22.20;100.00;101355.31;5052987;28;20429;-70
2023/08/18 11:59:42;;;;;;;20.08;18.08;;;;;;;22.26;100.00;101361.59;5051880;28;20437;-71
2023/08/18 12:02:08;;;;;;;21.75;19.55;;;;;;;22.24;100.00;101363.84;5050721;28;20067;-70
2023/08/18 12:04:34;;;;;;;22.58;20.27;;;;;;;22.31;100.00;101361.56;5053349;28;20060;-71
2023/08/18 12:07:00;;;;;;;21.13;18.80;;;;;;;22.35;100.00;101351.59;5052712;28;20111;-71
2023/08/18 12:09:25;;;;;;;22.42;20.00;;;;;;;22.52;100.00;101355.84;5053062;28;20440;-70
2023/08/18 12:11:51;;;;;;;21.67;19.48;;;;;;;22.63;100.00;101347.16;5051449;28;20364;-71
2023/08/18 12:14:17;;;;;;;21.83;19.52;;;;;;;22.69;100.00;101347.06;5052668;28;20040;-71
2023/08/18 12:16:43;;;;;;;21.85;19.27;;;;;;;22.72;100.00;101333.53;5052683;28;20419;-71
2023/08/18 12:19:09;;;;;;;21.45;19.25;;;;;;;22.88;100.00;101342.41;5052746;28;20060;-70
2023/08/18 12:21:38;;;;;;;20.35;18.33;;;;;;;23.02;100.00;101345.25;5052446;28;20056;-71
2023/08/18 12:24:06;;;;;;;20.33;18.27;;;;;;;23.10;100.00;101338.25;5052495;28;20036;-71
2023/08/18 12:26:32;;;;;;;19.60;17.48;;;;;;;23.27;100.00;101343.28;5052675;28;20055;-71
2023/08/18 12:28:57;;;;;;;20.58;18.30;;;;;;;23.38;100.00;101341.19;5052470;28;20056;-71
2023/08/18 12:31:24;;;;;;;20.45;18.25;;;;;;;23.47;100.00;101345.72;5052323;28;20523;-71
2023/08/18 12:33:53;;;;;;;20.67;18.67;;;;;;;23.46;100.00;101340.50;5051062;28;20067;-71
2023/08/18 12:36:19;;;;;;;20.80;18.65;;;;;;;23.43;100.00;101336.41;5052851;28;20024;-71
2023/08/18 12:38:45;;;;;;;21.38;19.25;;;;;;;23.60;100.00;101335.84;5051281;28;20104;-70
2023/08/18 12:41:10;;;;;;;20.08;17.70;;;;;;;23.73;100.00;101337.00;5052567;28;20027;-71
2023/08/18 12:43:36;;;;;;;21.30;18.83;;;;;;;23.78;100.00;101333.34;5051192;28;20119;-70
2023/08/18 12:46:02;;;;;;;22.40;20.10;;;;;;;23.80;100.00;101325.59;5051877;28;20053;-70
2023/08/18 12:48:27;;;;;;;22.95;20.52;;;;;;;23.81;100.00;101325.28;5052398;28;20036;-70
2023/08/18 12:50:53;;;;;;;24.52;21.85;;;;;;;23.89;100.00;101319.06;5052263;28;20025;-71
2023/08/18 12:53:18;;;;;;;23.30;19.60;;;;;;;24.08;100.00;101311.84;5051149;28;20047;-71
2023/08/18 12:55:43;;;;;;;23.10;20.77;;;;;;;24.10;100.00;101313.19;5051445;28;20048;-70
2023/08/18 12:58:08;;;;;;;23.40;20.77;;;;;;;24.35;100.00;101319.31;5052149;28;20096;-70
2023/08/18 13:00:34;;;;;;;23.73;21.20;;;;;;;24.49;100.00;101322.09;5049897;28;20021;-70
2023/08/18 13:02:59;;;;;;;23.55;21.00;;;;;;;24.67;100.00;101306.53;5051891;28;20021;-71
2023/08/18 13:05:24;;;;;;;24.70;22.10;;;;;;;24.71;100.00;101307.56;5052336;28;20041;-70
2023/08/18 13:07:50;;;;;;;28.20;24.80;;;;;;;24.74;100.00;101315.22;5051997;28;20033;-71
2023/08/18 13:10:16;;;;;;;25.80;23.05;;;;;;;24.70;100.00;101316.97;5051046;28;20032;-70
2023/08/18 13:12:41;;;;;;;23.73;21.23;;;;;;;24.87;100.00;101322.69;5052285;28;20028;-71
2023/08/18 13:15:07;;;;;;;24.20;21.73;;;;;;;24.99;100.00;101321.34;5051748;28;20021;-71
2023/08/18 13:17:32;;;;;;;26.52;23.73;;;;;;;25.08;100.00;101316.72;5052105;28;20091;-71
2023/08/18 13:19:58;;;;;;;28.42;25.35;;;;;;;25.04;100.00;101321.22;5051960;28;20215;-70
2023/08/18 13:22:23;;;;;;;26.42;23.65;;;;;;;25.09;100.00;101318.31;5051068;28;20072;-70
2023/08/18 13:24:49;;;;;;;25.80;23.02;;;;;;;25.17;100.00;101316.75;5051630;28;20444;-70
2023/08/18 13:27:14;;;;;;;26.40;22.65;;;;;;;25.32;100.00;101310.06;5051893;28;20032;-70
2023/08/18 13:29:40;;;;;;;27.85;24.75;;;;;;;25.38;100.00;101309.66;5051973;28;20035;-70
2023/08/18 13:32:06;;;;;;;29.40;26.20;;;;;;;25.37;100.00;101304.44;5051855;28;20475;-70
2023/08/18 13:34:31;;;;;;;25.95;23.10;;;;;;;25.61;100.00;101316.00;5055498;28;20025;-70
2023/08/18 13:36:56;;;;;;;29.40;24.45;;;;;;;25.55;100.00;101305.38;5054221;28;20025;-70
2023/08/18 13:39:22;;;;;;;29.08;25.88;;;;;;;25.75;100.00;101302.06;5055790;28;20017;-70
2023/08/18 13:41:47;;;;;;;27.15;24.30;;;;;;;25.74;100.00;101300.44;5055567;28;20052;-70
2023/08/18 13:44:12;;;;;;;28.23;25.15;;;;;;;25.85;100.00;101297.38;5055417;28;20025;-70
2023/08/18 13:46:39;;;;;;;30.90;26.05;;;;;;;25.94;100.00;101293.53;5055725;28;20037;-70
2023/08/18 13:49:05;;;;;;;30.33;24.50;;;;;;;25.95;100.00;101289.63;5055414;28;20122;-69
2023/08/18 13:51:30;;;;;;;29.27;24.35;;;;;;;26.10;100.00;101296.72;5055492;28;20084;-70
2023/08/18 13:53:55;;;;;;;30.05;25.90;;;;;;;26.06;100.00;101292.13;5055291;28;20517;-70
2023/08/18 13:56:21;;;;;;;29.33;26.23;;;;;;;26.12;100.00;101299.19;5055997;28;20064;-70
2023/08/18 13:58:46;;;;;;;30.95;26.52;;;;;;;26.31;100.00;101279.50;5054056;28;20112;-70
2023/08/18 14:01:11;;;;;;;29.85;26.45;;;;;;;26.28;100.00;101285.69;5051380;28;20073;-69
2023/08/18 14:03:37;;;;;;;31.23;27.83;;;;;;;26.21;100.00;101282.56;5055295;28;20136;-70
2023/08/18 14:06:02;;;;;;;31.80;28.50;;;;;;;26.30;100.00;101287.00;5054715;28;20021;-70
2023/08/18 14:08:28;;;;;;;31.33;26.98;;;;;;;26.47;100.00;101282.66;5055336;28;20114;-70
2023/08/18 14:10:53;;;;;;;32.28;28.77;;;;;;;26.48;100.00;101284.25;5054822;28;20045;-70
2023/08/18 14:13:18;;;;;;;37.08;28.35;;;;;;;26.44;100.00;101278.56;5055174;28;20179;-70
2023/08/18 14:15:44;;;;;;;31.60;26.27;;;;;;;26.50;100.00;101277.25;5055111;28;20456;-70
2023/08/18 14:18:11;;;;;;;31.45;27.45;;;;;;;26.34;100.00;101279.69;5054829;28;20021;-69
2023/08/18 14:20:36;;;;;;;33.85;29.20;;;;;;;26.60;100.00;101283.66;5055017;28;20411;-69
2023/08/18 14:23:02;;;;;;;32.33;28.52;;;;;;;26.49;100.00;101277.59;5054904;28;20037;-70
2023/08/18 14:25:27;;;;;;;34.50;27.38;;;;;;;26.60;100.00;101286.41;5055237;28;20029;-70
2023/08/18 14:27:53;;;;;;;32.42;28.77;;;;;;;26.43;100.00;101274.13;5054554;28;20463;-70
2023/08/18 14:30:20;;;;;;;35.15;30.83;;;;;;;26.37;100.00;101277.41;5053592;28;20021;-70
2023/08/18 14:32:47;;;;;;;33.60;29.23;;;;;;;26.34;100.00;101273.31;5054522;28;20388;-70
2023/08/18 14:35:12;;;;;;;34.25;30.08;;;;;;;26.29;100.00;101281.78;5054523;28;20213;-70
2023/08/18 14:37:38;;;;;;;34.92;29.65;;;;;;;26.46;100.00;101275.47;5054681;28;20364;-70
2023/08/18 14:40:07;;;;;;;33.38;29.10;;;;;;;26.62;100.00;101273.84;5054182;28;20345;-70
2023/08/18 14:42:34;;;;;;;34.70;29.63;;;;;;;26.82;100.00;101279.97;5042309;28;20056;-74
2023/08/18 14:44:59;;;;;;;32.05;27.77;;;;;;;26.91;100.00;101269.66;5033135;28;20028;-70
2023/08/18 14:47:25;;;;;;;31.67;28.15;;;;;;;26.78;100.00;101265.09;5034586;28;20037;-70
2023/08/18 14:49:50;;;;;;;32.90;27.75;;;;;;;26.61;100.00;101265.84;5035349;28;20036;-69
2023/08/18 14:52:15;;;;;;;33.47;28.23;;;;;;;26.49;100.00;101255.38;5034322;28;20149;-70
2023/08/18 14:54:41;;;;;;;32.63;27.58;;;;;;;26.43;100.00;101257.50;5034455;28;20403;-69
2023/08/18 14:57:07;;;;;;;33.65;27.83;;;;;;;26.48;100.00;101256.50;5032883;28;20057;-70
2023/08/18 14:59:35;;;;;;;37.50;30.90;;;;;;;26.38;100.00;101240.19;5034401;28;20025;-70
2023/08/18 15:02:01;;;;;;;35.80;29.38;;;;;;;26.24;100.00;101243.91;5030519;28;20523;-70
2023/08/18 15:04:26;;;;;;;34.45;29.55;;;;;;;26.28;100.00;101252.41;5040321;28;20045;-71
2023/08/18 15:06:52;;;;;;;36.80;29.52;;;;;;;26.29;100.00;101242.94;5039741;28;20021;-72
2023/08/18 15:09:17;;;;;;;34.15;28.02;;;;;;;26.19;100.00;101232.94;5032674;28;20112;-73
2023/08/18 15:11:43;;;;;;;31.40;27.02;;;;;;;26.20;100.00;101229.03;5032819;28;20118;-73
2023/08/18 15:14:09;;;;;;;34.05;27.75;;;;;;;26.08;100.00;101232.44;5033811;28;20363;-72
2023/08/18 15:16:34;;;;;;;37.78;29.75;;;;;;;25.99;100.00;101229.63;5032748;28;20121;-72
2023/08/18 15:18:59;;;;;;;36.88;28.55;;;;;;;25.94;100.00;101221.44;5033744;28;20025;-73
2023/08/18 15:21:25;;;;;;;35.83;29.17;;;;;;;26.02;100.00;101213.50;5034041;28;20021;-72
2023/08/18 15:23:53;;;;;;;39.28;29.27;;;;;;;26.15;100.00;101210.59;5050543;28;20029;-72
2023/08/18 15:26:18;;;;;;;34.03;27.77;;;;;;;26.39;100.00;101219.63;5053097;28;20025;-72
2023/08/18 15:28:43;;;;;;;32.90;27.23;;;;;;;26.74;100.00;101225.22;5053358;28;20017;-72
2023/08/18 15:31:19;;;;;;;35.47;28.13;;;;;;;27.24;100.00;101222.75;5052980;28;20028;-73
2023/08/18 15:33:45;;;;;;;37.60;29.20;;;;;;;27.55;100.00;101218.13;5053130;28;20371;-74
2023/08/18 15:36:10;;;;;;;33.63;27.25;;;;;;;27.93;95.93;101217.31;5053009;28;20104;-74
2023/08/18 15:38:36;;;;;;;31.70;26.05;;;;;;;28.48;89.56;101206.41;5053559;28;20440;-73
2023/08/18 15:41:02;;;;;;;33.35;26.77;;;;;;;28.75;87.59;101205.88;5052591;28;20060;-74
2023/08/18 15:43:27;;;;;;;32.67;26.42;;;;;;;28.90;76.52;101218.38;5053215;28;20025;-75
2023/08/18 15:45:54;;;;;;;32.08;25.42;;;;;;;29.12;75.39;101208.84;5052745;28;20464;-74
2023/08/18 15:48:19;;;;;;;34.08;24.52;;;;;;;29.10;77.35;101204.75;5051687;28;20507;-73
2023/08/18 15:50:44;;;;;;;29.73;22.58;;;;;;;29.15;73.02;101201.72;5053037;28;20028;-72
2023/08/18 15:53:10;;;;;;;31.83;24.27;;;;;;;29.10;76.44;101199.19;5052717;28;20112;-73
2023/08/18 15:55:45;;;;;;;27.35;23.20;;;;;;;28.93;77.81;101200.16;5052747;28;20100;-73
2023/08/18 15:58:12;;;;;;;29.65;22.80;;;;;;;28.61;80.85;101200.59;5053228;28;20028;-74
2023/08/18 16:00:39;;;;;;;28.35;23.15;;;;;;;28.48;83.97;101200.84;5050615;28;20037;-73
2023/08/18 16:03:05;;;;;;;34.45;24.48;;;;;;;28.46;86.70;101195.63;5053012;28;20117;-73
